createdAt,value
2019-04-06T00:01:27.424Z,32.43
2019-04-06T00:03:56.971Z,34.97
2019-04-06T00:06:26.582Z,35.40
2019-04-06T00:08:56.208Z,32.80
2019-04-06T00:11:25.770Z,34.90
2019-04-06T00:13:55.479Z,33.83
2019-04-06T00:16:25.142Z,35.30
2019-04-06T00:18:54.730Z,35.20
2019-04-06T00:21:24.803Z,35.40
2019-04-06T00:23:54.351Z,36.17
2019-04-06T00:26:23.884Z,37.37
2019-04-06T00:28:53.449Z,33.83
2019-04-06T00:31:27.600Z,38.10
2019-04-06T00:33:57.159Z,36.57
2019-04-06T00:36:26.687Z,35.27
2019-04-06T00:38:56.302Z,34.77
2019-04-06T00:41:25.866Z,35.80
2019-04-06T00:43:55.432Z,36.37
2019-04-06T00:46:25.033Z,36.80
2019-04-06T00:48:54.599Z,36.17
2019-04-06T00:51:24.780Z,34.47
2019-04-06T00:53:54.311Z,37.60
2019-04-06T00:56:23.844Z,34.53
2019-04-06T00:58:53.437Z,35.07
2019-04-06T01:01:23.047Z,37.20
2019-04-06T01:03:52.675Z,37.67
2019-04-06T01:06:22.260Z,33.73
2019-04-06T01:08:51.843Z,37.37
2019-04-06T01:11:21.392Z,39.10
2019-04-06T01:13:50.986Z,38.50
2019-04-06T01:16:20.549Z,36.90
2019-04-06T01:18:50.094Z,35.70
2019-04-06T01:21:19.642Z,35.37
2019-04-06T01:23:49.271Z,38.80
2019-04-06T01:26:18.918Z,37.20
2019-04-06T01:28:48.532Z,37.10
2019-04-06T01:31:18.090Z,37.60
2019-04-06T01:33:47.636Z,37.50
2019-04-06T01:36:17.159Z,35.37
2019-04-06T01:38:46.696Z,36.30
2019-04-06T01:41:16.239Z,37.47
2019-04-06T01:43:45.941Z,37.67
2019-04-06T01:46:15.537Z,36.53
2019-04-06T01:48:45.571Z,34.73
2019-04-06T01:51:15.168Z,37.70
2019-04-06T01:53:44.756Z,39.00
2019-04-06T01:56:18.678Z,40.63
2019-04-06T01:58:45.687Z,38.93
2019-04-06T02:01:31.968Z,38.23
2019-04-06T02:04:01.585Z,37.03
2019-04-06T02:06:31.104Z,35.90
2019-04-06T02:09:01.388Z,38.17
2019-04-06T02:11:30.915Z,36.77
2019-04-06T02:14:00.609Z,38.57
2019-04-06T02:16:30.390Z,35.47
2019-04-06T02:18:59.992Z,37.37
2019-04-06T02:21:29.560Z,37.23
2019-04-06T02:23:59.190Z,35.77
2019-04-06T02:26:30.659Z,39.43
2019-04-06T02:29:00.144Z,38.03
2019-04-06T02:31:47.663Z,37.70
2019-04-06T02:34:34.989Z,38.97
2019-04-06T02:37:09.109Z,37.13
2019-04-06T02:39:56.062Z,37.83
2019-04-06T02:42:33.486Z,34.67
2019-04-06T02:45:03.099Z,39.20
2019-04-06T02:47:32.769Z,36.10
2019-04-06T02:50:02.302Z,37.50
2019-04-06T02:52:31.865Z,37.20
2019-04-06T02:55:01.650Z,39.17
2019-04-06T02:57:32.244Z,37.83
2019-04-06T03:00:01.795Z,37.00
2019-04-06T03:02:31.323Z,38.20
2019-04-06T03:05:00.889Z,38.73
2019-04-06T03:07:30.519Z,36.87
2019-04-06T03:10:00.216Z,37.00
2019-04-06T03:12:30.536Z,40.47
2019-04-06T03:15:00.130Z,40.07
2019-04-06T03:17:29.693Z,39.27
2019-04-06T03:19:59.199Z,42.67
2019-04-06T03:22:28.783Z,40.90
2019-04-06T03:24:58.304Z,40.10
2019-04-06T03:27:27.829Z,40.10
2019-04-06T03:29:59.171Z,40.47
2019-04-06T03:32:28.995Z,38.57
2019-04-06T03:34:58.940Z,38.80
2019-04-06T03:37:28.632Z,42.07
2019-04-06T03:39:58.429Z,41.30
2019-04-06T03:42:28.009Z,40.50
2019-04-06T03:44:57.732Z,41.13
2019-04-06T03:47:27.318Z,39.80
2019-04-06T03:49:57.046Z,38.30
2019-04-06T03:52:26.694Z,39.43
2019-04-06T03:54:56.328Z,38.70
2019-04-06T03:57:25.868Z,39.97
2019-04-06T03:59:55.497Z,42.30
2019-04-06T04:02:25.148Z,39.47
2019-04-06T04:04:54.763Z,41.13
2019-04-06T04:07:24.583Z,41.77
2019-04-06T04:09:54.108Z,41.63
2019-04-06T04:12:23.732Z,40.87
2019-04-06T04:14:53.306Z,42.13
2019-04-06T04:17:22.944Z,40.53
2019-04-06T04:19:52.535Z,41.67
2019-04-06T04:22:22.096Z,42.03
2019-04-06T04:24:51.614Z,42.90
2019-04-06T04:27:28.444Z,40.80
2019-04-06T04:29:52.471Z,40.87
2019-04-06T04:32:22.055Z,42.30
2019-04-06T04:34:51.609Z,40.07
2019-04-06T04:37:21.121Z,43.27
2019-04-06T04:39:50.647Z,42.93
2019-04-06T04:42:20.231Z,44.40
2019-04-06T04:44:49.774Z,44.63
2019-04-06T04:47:19.296Z,44.37
2019-04-06T04:49:48.864Z,43.37
2019-04-06T04:52:18.556Z,42.93
2019-04-06T04:54:48.096Z,44.90
2019-04-06T04:57:17.669Z,46.97
2019-04-06T04:59:47.212Z,44.60
2019-04-06T05:02:16.732Z,43.90
2019-04-06T05:04:46.382Z,44.17
2019-04-06T05:07:15.932Z,45.73
2019-04-06T05:09:45.484Z,47.73
2019-04-06T05:12:15.019Z,45.57
2019-04-06T05:14:58.320Z,45.07
2019-04-06T05:17:28.114Z,43.10
2019-04-06T05:19:57.846Z,44.17
2019-04-06T05:22:27.654Z,48.43
2019-04-06T05:24:57.631Z,46.37
2019-04-06T05:27:27.254Z,46.43
2019-04-06T05:29:56.849Z,48.37
2019-04-06T05:32:26.411Z,45.70
2019-04-06T05:34:57.998Z,46.03
2019-04-06T05:37:27.465Z,44.00
2019-04-06T05:39:57.019Z,44.23
2019-04-06T05:42:26.523Z,43.80
2019-04-06T05:44:56.108Z,43.17
2019-04-06T05:47:25.644Z,42.63
2019-04-06T05:49:55.251Z,44.40
2019-04-06T05:52:24.824Z,44.43
2019-04-06T05:54:54.454Z,48.40
2019-04-06T05:57:24.047Z,45.93
2019-04-06T05:59:53.610Z,47.83
2019-04-06T06:02:23.309Z,46.90
2019-04-06T06:04:52.938Z,46.53
2019-04-06T06:07:22.528Z,45.53
2019-04-06T06:09:52.110Z,48.43
2019-04-06T06:12:21.644Z,45.67
2019-04-06T06:14:51.246Z,45.90
2019-04-06T06:17:21.137Z,45.03
2019-04-06T06:19:50.654Z,46.50
2019-04-06T06:22:20.344Z,45.10
2019-04-06T06:24:49.940Z,47.57
2019-04-06T06:27:19.474Z,49.30
2019-04-06T06:29:48.990Z,48.30
2019-04-06T06:32:18.569Z,50.23
2019-04-06T06:34:48.283Z,45.77
2019-04-06T06:37:17.905Z,46.77
2019-04-06T06:39:47.467Z,47.23
2019-04-06T06:42:17.011Z,45.03
2019-04-06T06:44:46.763Z,46.03
2019-04-06T06:47:16.610Z,45.63
2019-04-06T06:49:46.160Z,47.10
2019-04-06T06:52:15.780Z,44.73
2019-04-06T06:54:45.351Z,46.87
2019-04-06T06:57:14.888Z,46.23
2019-04-06T06:59:44.462Z,47.80
2019-04-06T07:02:14.008Z,45.07
2019-04-06T07:04:43.562Z,45.80
2019-04-06T07:07:13.204Z,45.90
2019-04-06T07:09:42.775Z,46.10
2019-04-06T07:12:12.672Z,44.83
2019-04-06T07:14:42.552Z,45.17
2019-04-06T07:17:12.222Z,46.17
2019-04-06T07:19:41.827Z,45.50
2019-04-06T07:22:11.419Z,45.17
2019-04-06T07:24:41.036Z,48.17
2019-04-06T07:27:10.999Z,46.67
2019-04-06T07:29:40.685Z,49.23
2019-04-06T07:32:10.510Z,46.80
2019-04-06T07:34:40.171Z,45.30
2019-04-06T07:37:09.848Z,48.17
2019-04-06T07:39:39.484Z,46.10
2019-04-06T07:42:09.109Z,48.70
2019-04-06T07:44:38.868Z,46.00
2019-04-06T07:47:08.509Z,47.50
2019-04-06T07:49:38.113Z,45.87
2019-04-06T07:52:07.920Z,45.30
2019-04-06T07:54:37.536Z,44.57
2019-04-06T07:57:07.060Z,47.87
2019-04-06T07:59:36.678Z,42.43
2019-04-06T08:02:06.238Z,46.33
2019-04-06T08:04:35.873Z,43.87
2019-04-06T08:07:05.522Z,46.20
2019-04-06T08:09:35.083Z,47.73
2019-04-06T08:12:04.770Z,44.50
2019-04-06T08:14:34.302Z,46.80
2019-04-06T08:17:04.274Z,46.20
2019-04-06T08:19:34.075Z,43.27
2019-04-06T08:22:03.694Z,45.63
2019-04-06T08:24:33.413Z,44.60
2019-04-06T08:27:02.947Z,41.43
2019-04-06T08:29:32.554Z,45.17
2019-04-06T08:32:02.201Z,44.90
2019-04-06T08:34:31.738Z,48.57
2019-04-06T08:37:01.284Z,44.80
2019-04-06T08:39:31.153Z,44.70
2019-04-06T08:42:00.925Z,43.50
2019-04-06T08:44:30.492Z,46.33
2019-04-06T08:47:00.328Z,44.00
2019-04-06T08:49:29.932Z,43.93
2019-04-06T08:51:59.523Z,44.10
2019-04-06T08:54:29.286Z,43.27
2019-04-06T08:56:59.099Z,42.60
2019-04-06T08:59:28.702Z,44.63
2019-04-06T09:01:58.320Z,44.80
2019-04-06T09:04:27.943Z,45.53
2019-04-06T09:06:57.569Z,42.90
2019-04-06T09:09:27.492Z,44.17
2019-04-06T09:11:57.619Z,41.57
2019-04-06T09:14:27.263Z,41.40
2019-04-06T09:16:57.802Z,39.87
2019-04-06T09:19:27.439Z,44.27
2019-04-06T09:21:57.027Z,42.43
2019-04-06T09:24:26.718Z,42.30
2019-04-06T09:26:56.501Z,39.17
2019-04-06T09:29:26.192Z,39.47
2019-04-06T09:31:55.736Z,39.20
2019-04-06T09:34:25.387Z,37.60
2019-04-06T09:36:55.132Z,40.90
2019-04-06T09:39:24.667Z,38.40
2019-04-06T09:41:54.302Z,40.33
2019-04-06T09:44:25.463Z,40.40
2019-04-06T09:47:02.653Z,39.53
2019-04-06T09:49:49.942Z,37.27
2019-04-06T09:52:26.888Z,37.53
2019-04-06T09:55:10.127Z,39.83
2019-04-06T09:57:57.246Z,41.03
2019-04-06T10:00:31.444Z,39.10
2019-04-06T10:03:08.805Z,36.17
2019-04-06T10:05:40.027Z,34.90
2019-04-06T13:46:24.952Z,37.53
2019-04-06T13:52:27.700Z,37.60
2019-04-06T14:07:34.135Z,45.50
2019-04-06T14:10:35.344Z,50.60
2019-04-06T14:20:09.771Z,46.60
2019-04-06T14:29:51.613Z,51.80
2019-04-06T14:32:38.982Z,51.77
2019-04-06T14:35:16.119Z,47.80
2019-04-06T14:38:03.676Z,46.57
2019-04-06T14:40:46.487Z,49.07
2019-04-06T14:43:36.016Z,50.80
2019-04-06T14:46:16.688Z,46.03
2019-04-06T14:49:13.536Z,42.50
2019-04-06T14:51:39.771Z,44.17
2019-04-06T14:54:11.474Z,41.77
2019-04-06T14:56:45.671Z,42.10
2019-04-06T14:59:28.595Z,37.87
2019-04-06T15:02:06.040Z,39.80
2019-04-06T15:05:22.554Z,39.57
2019-04-06T15:07:50.519Z,39.03
2019-04-06T15:10:21.755Z,37.43
2019-04-06T15:12:53.030Z,44.93
2019-04-06T15:15:33.178Z,37.13
2019-04-06T15:18:07.307Z,38.40
2019-04-06T15:20:47.420Z,38.97
2019-04-06T15:23:18.774Z,37.50
2019-04-06T15:25:50.271Z,37.03
2019-04-06T15:28:30.191Z,37.70
2019-04-06T15:31:04.340Z,36.70
2019-04-06T15:33:41.417Z,38.30
2019-04-06T15:36:18.390Z,38.30
2019-04-06T15:38:52.882Z,36.40
2019-04-06T15:41:26.927Z,41.33
2019-04-06T15:44:10.055Z,38.33
2019-04-06T15:46:41.695Z,40.33
2019-04-06T15:49:25.142Z,40.47
2019-04-06T15:52:15.362Z,40.00
2019-04-06T15:54:47.066Z,39.17
2019-04-06T15:57:33.326Z,39.90
2019-04-06T16:00:17.665Z,41.93
2019-04-06T16:03:00.991Z,42.30
2019-04-06T16:05:50.789Z,42.60
2019-04-06T16:08:38.258Z,38.90
2019-04-06T16:11:12.485Z,39.30
2019-04-06T16:13:49.752Z,40.03
2019-04-06T16:16:21.169Z,40.63
2019-04-06T16:18:55.388Z,39.00
2019-04-06T16:21:35.635Z,43.00
2019-04-06T16:24:19.159Z,39.60
2019-04-06T16:26:56.750Z,40.50
2019-04-06T16:29:36.675Z,42.57
2019-04-06T16:32:13.924Z,40.83
2019-04-06T16:34:47.990Z,44.60
2019-04-06T16:37:19.468Z,55.43
2019-04-06T16:39:50.798Z,45.70
2019-04-06T16:42:22.072Z,45.87
2019-04-06T16:44:59.373Z,49.60
2019-04-06T16:47:32.262Z,74.90
2019-04-06T16:50:06.191Z,59.60
2019-04-06T16:52:43.568Z,55.93
2019-04-06T16:55:14.831Z,63.17
2019-04-06T16:57:48.854Z,55.17
2019-04-06T17:00:29.485Z,46.43
2019-04-06T17:03:07.721Z,46.30
2019-04-06T17:05:47.745Z,43.90
2019-04-06T17:08:19.056Z,43.77
2019-04-06T17:11:05.761Z,40.83
2019-04-06T17:13:37.112Z,41.70
2019-04-06T17:16:11.151Z,42.70
2019-04-06T17:18:58.380Z,43.07
2019-04-06T17:21:47.701Z,43.20
2019-04-06T17:24:22.304Z,49.90
2019-04-06T17:27:08.337Z,49.00
2019-04-06T17:29:42.511Z,45.20
2019-04-06T17:32:13.718Z,46.80
2019-04-06T17:34:53.932Z,42.43
2019-04-06T17:37:26.515Z,44.70
2019-04-06T17:40:03.980Z,49.00
2019-04-06T17:42:41.619Z,44.40
2019-04-06T17:45:31.217Z,66.63
2019-04-06T17:48:11.086Z,49.30
2019-04-06T17:50:51.271Z,44.70
2019-04-06T17:53:22.522Z,78.37
2019-04-06T17:55:53.720Z,69.80
2019-04-06T17:58:41.052Z,50.27
2019-04-06T18:01:27.790Z,47.13
2019-04-06T18:04:14.959Z,66.00
2019-04-06T18:06:52.241Z,48.03
2019-04-06T18:09:29.394Z,41.57
2019-04-06T18:12:00.807Z,41.20
2019-04-06T18:14:30.441Z,43.07
2019-04-06T18:16:59.996Z,42.90
2019-04-06T18:19:29.884Z,44.87
2019-04-06T18:21:59.546Z,41.77
2019-04-06T18:24:29.202Z,43.37
2019-04-06T18:26:58.736Z,43.50
2019-04-06T18:29:28.260Z,44.20
2019-04-06T18:32:05.316Z,44.97
2019-04-06T18:34:34.833Z,44.00
2019-04-06T18:37:09.059Z,41.50
2019-04-06T18:39:38.687Z,41.83
2019-04-06T18:42:08.399Z,42.60
2019-04-06T18:44:37.978Z,44.30
2019-04-06T18:47:07.616Z,46.27
2019-04-06T18:49:37.560Z,47.47
2019-04-06T18:52:07.372Z,55.20
2019-04-06T18:54:37.089Z,45.80
2019-04-06T18:57:07.102Z,49.43
2019-04-06T18:59:36.908Z,45.40
2019-04-06T19:02:06.474Z,47.57
2019-04-06T19:04:36.135Z,47.07
2019-04-06T19:07:06.081Z,48.20
2019-04-06T19:09:35.702Z,46.50
2019-04-06T19:12:05.449Z,50.90
2019-04-06T19:14:34.981Z,50.30
2019-04-06T19:17:04.766Z,50.97
2019-04-06T19:19:34.333Z,50.47
2019-04-06T19:22:03.961Z,49.50
2019-04-06T19:24:33.902Z,49.67
2019-04-06T19:27:03.565Z,48.27
2019-04-06T19:29:33.118Z,48.53
2019-04-06T19:32:02.922Z,47.87
2019-04-06T19:34:32.602Z,50.37
2019-04-06T19:37:02.260Z,47.80
2019-04-06T19:39:31.854Z,50.47
2019-04-06T19:42:01.830Z,49.50
2019-04-06T19:44:31.601Z,48.93
2019-04-06T19:47:01.202Z,52.63
2019-04-06T19:49:30.835Z,50.47
2019-04-06T19:52:00.401Z,50.00
2019-04-06T19:54:29.938Z,48.73
2019-04-06T19:56:59.945Z,48.43
2019-04-06T19:59:29.538Z,46.27
2019-04-06T20:01:59.802Z,48.23
2019-04-06T20:04:29.741Z,50.07
2019-04-06T20:06:59.394Z,49.17
2019-04-06T20:09:29.234Z,48.97
2019-04-06T20:12:06.065Z,49.20
2019-04-06T20:14:30.105Z,52.17
2019-04-06T20:16:59.677Z,51.87
2019-04-06T20:19:29.537Z,49.60
2019-04-06T20:21:59.593Z,50.37
2019-04-06T20:24:29.941Z,50.73
2019-04-06T20:27:00.588Z,52.00
2019-04-06T20:29:30.234Z,51.30
2019-04-06T20:32:00.358Z,51.63
2019-04-06T20:34:30.050Z,51.47
2019-04-06T20:36:59.656Z,52.30
2019-04-06T20:39:29.316Z,48.10
2019-04-06T20:41:58.994Z,51.37
2019-04-06T20:44:28.550Z,49.90
2019-04-06T20:46:58.413Z,50.97
2019-04-06T20:49:28.119Z,51.60
2019-04-06T20:51:59.045Z,52.10
2019-04-06T20:54:28.979Z,49.30
2019-04-06T20:56:59.143Z,53.13
2019-04-06T20:59:28.774Z,51.63
2019-04-06T21:01:58.893Z,50.67
2019-04-06T21:04:28.525Z,55.50
2019-04-06T21:06:58.089Z,51.57
2019-04-06T21:09:27.710Z,51.00
2019-04-06T21:11:57.347Z,50.33
2019-04-06T21:14:27.279Z,49.10
2019-04-06T21:16:56.854Z,53.77
2019-04-06T21:19:27.034Z,52.43
2019-04-06T21:21:58.739Z,52.00
2019-04-06T21:24:28.324Z,57.17
2019-04-06T21:26:58.601Z,56.03
2019-04-06T21:29:28.242Z,55.80
2019-04-06T21:31:57.783Z,55.47
2019-04-06T21:34:27.393Z,51.33
2019-04-06T21:36:57.474Z,56.57
2019-04-06T21:39:27.078Z,57.30
2019-04-06T21:41:56.688Z,55.77
2019-04-06T21:44:26.723Z,54.63
2019-04-06T21:46:57.409Z,51.40
2019-04-06T21:49:27.075Z,53.73
2019-04-06T21:51:56.690Z,54.83
2019-04-06T21:54:26.298Z,56.70
2019-04-06T21:56:55.919Z,54.17
2019-04-06T21:59:25.745Z,53.00
2019-04-06T22:01:55.830Z,56.43
2019-04-06T22:04:27.312Z,54.03
2019-04-06T22:06:57.314Z,54.87
2019-04-06T22:09:27.168Z,53.37
2019-04-06T22:11:56.786Z,58.80
2019-04-06T22:14:26.348Z,56.70
2019-04-06T22:16:56.115Z,56.87
2019-04-06T22:19:25.686Z,56.50
2019-04-06T22:21:55.450Z,56.10
2019-04-06T22:24:25.239Z,57.80
2019-04-06T22:26:55.052Z,56.73
2019-04-06T22:29:24.889Z,56.87
2019-04-06T22:31:54.552Z,57.10
2019-04-06T22:34:34.841Z,58.67
2019-04-06T22:36:55.939Z,55.40
2019-04-06T22:39:26.021Z,56.33
2019-04-06T22:41:55.850Z,60.13
2019-04-06T22:44:25.500Z,59.43
2019-04-06T22:46:55.047Z,60.30
2019-04-06T22:49:24.654Z,57.40
2019-04-06T22:51:54.222Z,60.83
2019-04-06T22:54:23.958Z,60.00
2019-04-06T22:56:53.556Z,65.17
2019-04-06T22:59:23.354Z,61.00
2019-04-06T23:01:53.351Z,59.67
2019-04-06T23:04:47.353Z,57.10
2019-04-06T23:07:09.250Z,57.20
2019-04-06T23:09:38.856Z,55.17
2019-04-06T23:12:08.638Z,55.13
2019-04-06T23:14:38.376Z,56.90
2019-04-06T23:17:08.001Z,55.60
2019-04-06T23:19:37.613Z,54.50
2019-04-06T23:22:07.187Z,52.60
2019-04-06T23:24:37.454Z,55.50
2019-04-06T23:27:07.002Z,52.77
2019-04-06T23:29:36.585Z,51.80
2019-04-06T23:32:06.160Z,50.37
2019-04-06T23:34:36.197Z,50.37
2019-04-06T23:37:06.258Z,49.60
2019-04-06T23:39:36.293Z,52.10
2019-04-06T23:42:05.825Z,49.57
2019-04-06T23:44:35.391Z,48.67
2019-04-06T23:47:04.910Z,50.30
2019-04-06T23:49:34.968Z,51.53
2019-04-06T23:52:04.974Z,48.00
2019-04-06T23:54:34.798Z,51.63
2019-04-06T23:57:04.689Z,52.10
2019-04-06T23:59:35.122Z,50.40
